TNO1122 KOKC-KASE
Flight info
| Callsign | TNO1122 |
|---|---|
| Flight time | 2h 13m |
| Altitude | 20000 |
| Route | STPHN3 ZEEWE ROLLS |
| Aircraft | AT75/M-SDFGIRY/S |
Departure
| Time | 2026-04-27 13:17 |
|---|---|
| Airport | OKC Will Rogers World Airport (KOKC) |
Arrival
| Time | 2026-04-27 15:30 |
|---|---|
| Airport | Aspen-Pitkin County Airport (Sardy Field) (KASE) |
| Time | Latitude | Longitude | Altitude | Speed | Heading |
|---|---|---|---|---|---|
| 2026-04-27 13:02 | 35.39585 | -97.59257 | 1303 ft | 0 kts | 271° |
| 2026-04-27 13:05 | 35.39585 | -97.59258 | 1303 ft | 0 kts | 271° |
| 2026-04-27 13:12 | 35.39585 | -97.59251 | 1303 ft | 2 kts | 269° |
| 2026-04-27 13:13 | 35.39588 | -97.59230 | 1303 ft | 3 kts | 248° |
| 2026-04-27 13:13 | 35.39581 | -97.59235 | 1303 ft | 8 kts | 211° |
| 2026-04-27 13:13 | 35.39509 | -97.59260 | 1303 ft | 15 kts | 180° |
| 2026-04-27 13:13 | 35.39417 | -97.59248 | 1303 ft | 15 kts | 173° |
| 2026-04-27 13:14 | 35.39304 | -97.59240 | 1303 ft | 16 kts | 181° |
| 2026-04-27 13:14 | 35.39189 | -97.59242 | 1303 ft | 18 kts | 181° |
| 2026-04-27 13:14 | 35.39085 | -97.59242 | 1303 ft | 15 kts | 180° |
| 2026-04-27 13:14 | 35.38990 | -97.59250 | 1303 ft | 11 kts | 208° |
| 2026-04-27 13:15 | 35.38978 | -97.59329 | 1303 ft | 16 kts | 273° |
| 2026-04-27 13:15 | 35.38978 | -97.59460 | 1303 ft | 16 kts | 269° |
| 2026-04-27 13:15 | 35.38977 | -97.59610 | 1303 ft | 18 kts | 269° |
| 2026-04-27 13:15 | 35.38968 | -97.59737 | 1303 ft | 11 kts | 256° |
| 2026-04-27 13:16 | 35.38969 | -97.59774 | 1303 ft | 1 kts | 316° |
| 2026-04-27 13:16 | 35.39027 | -97.59845 | 1303 ft | 59 kts | 313° |
| 2026-04-27 13:16 | 35.39606 | -97.60543 | 1303 ft | 158 kts | 313° |
| 2026-04-27 13:16 | 35.40476 | -97.61594 | 1643 ft | 187 kts | 314° |
| 2026-04-27 13:17 | 35.41453 | -97.62771 | 2032 ft | 203 kts | 310° |
| 2026-04-27 13:17 | 35.42096 | -97.64242 | 2346 ft | 191 kts | 283° |
| 2026-04-27 13:17 | 35.42139 | -97.65794 | 2701 ft | 180 kts | 261° |
| 2026-04-27 13:17 | 35.41913 | -97.67390 | 3076 ft | 198 kts | 255° |
| 2026-04-27 13:18 | 35.41648 | -97.69128 | 3476 ft | 213 kts | 258° |
| 2026-04-27 13:18 | 35.41497 | -97.70945 | 3856 ft | 219 kts | 263° |
| 2026-04-27 13:18 | 35.41475 | -97.72829 | 4233 ft | 220 kts | 269° |
| 2026-04-27 13:18 | 35.41580 | -97.74703 | 4631 ft | 219 kts | 272° |
| 2026-04-27 13:19 | 35.41757 | -97.76573 | 5020 ft | 221 kts | 275° |
| 2026-04-27 13:19 | 35.41974 | -97.78439 | 5399 ft | 222 kts | 276° |
| 2026-04-27 13:19 | 35.42219 | -97.80291 | 5750 ft | 218 kts | 277° |
| 2026-04-27 13:19 | 35.42488 | -97.82122 | 6130 ft | 218 kts | 278° |
| 2026-04-27 13:20 | 35.42763 | -97.83904 | 6495 ft | 213 kts | 278° |
| 2026-04-27 13:20 | 35.43040 | -97.85672 | 6863 ft | 210 kts | 277° |
| 2026-04-27 13:20 | 35.43315 | -97.87441 | 7224 ft | 211 kts | 277° |
| 2026-04-27 13:20 | 35.43592 | -97.89212 | 7604 ft | 211 kts | 277° |
| 2026-04-27 13:21 | 35.43864 | -97.90969 | 7981 ft | 210 kts | 277° |
| 2026-04-27 13:21 | 35.44131 | -97.92735 | 8347 ft | 209 kts | 277° |
| 2026-04-27 13:21 | 35.44398 | -97.94467 | 8719 ft | 205 kts | 277° |
| 2026-04-27 13:21 | 35.44665 | -97.96165 | 9089 ft | 201 kts | 277° |
| 2026-04-27 13:22 | 35.44928 | -97.97836 | 9463 ft | 198 kts | 276° |
| 2026-04-27 13:22 | 35.45185 | -97.99481 | 9837 ft | 195 kts | 274° |
| 2026-04-27 13:22 | 35.45436 | -98.01104 | 10205 ft | 192 kts | 274° |
| 2026-04-27 13:22 | 35.45684 | -98.02702 | 10568 ft | 189 kts | 272° |
| 2026-04-27 13:23 | 35.45929 | -98.04290 | 10948 ft | 191 kts | 271° |
| 2026-04-27 13:23 | 35.46165 | -98.05904 | 11336 ft | 193 kts | 270° |
| 2026-04-27 13:23 | 35.46400 | -98.07530 | 11726 ft | 196 kts | 269° |
| 2026-04-27 13:23 | 35.46650 | -98.09190 | 12108 ft | 197 kts | 269° |
| 2026-04-27 13:24 | 35.46907 | -98.10832 | 12482 ft | 199 kts | 269° |
| 2026-04-27 13:24 | 35.47157 | -98.12510 | 12862 ft | 198 kts | 268° |
| 2026-04-27 13:24 | 35.47359 | -98.14168 | 13238 ft | 197 kts | 267° |
| 2026-04-27 13:24 | 35.47528 | -98.15846 | 13612 ft | 197 kts | 265° |
| 2026-04-27 13:25 | 35.47665 | -98.17505 | 13981 ft | 197 kts | 265° |
| 2026-04-27 13:25 | 35.47822 | -98.19182 | 14358 ft | 197 kts | 267° |
| 2026-04-27 13:25 | 35.47985 | -98.20849 | 14730 ft | 193 kts | 266° |
| 2026-04-27 13:25 | 35.48125 | -98.22452 | 15094 ft | 188 kts | 266° |
| 2026-04-27 13:26 | 35.48258 | -98.24028 | 15466 ft | 182 kts | 265° |
| 2026-04-27 13:26 | 35.48386 | -98.25573 | 15839 ft | 181 kts | 265° |
| 2026-04-27 13:26 | 35.48511 | -98.27118 | 16215 ft | 184 kts | 266° |
| 2026-04-27 13:26 | 35.48640 | -98.28679 | 16589 ft | 186 kts | 266° |
| 2026-04-27 13:27 | 35.48774 | -98.30279 | 16968 ft | 188 kts | 266° |
| 2026-04-27 13:27 | 35.48912 | -98.31872 | 17342 ft | 190 kts | 266° |
| 2026-04-27 13:27 | 35.49054 | -98.33495 | 17721 ft | 191 kts | 267° |
| 2026-04-27 13:27 | 35.49199 | -98.35124 | 18106 ft | 192 kts | 267° |
| 2026-04-27 13:28 | 35.49342 | -98.36751 | 18490 ft | 196 kts | 267° |
| 2026-04-27 13:28 | 35.49488 | -98.38434 | 18872 ft | 199 kts | 267° |
| 2026-04-27 13:28 | 35.49637 | -98.40136 | 19235 ft | 199 kts | 267° |
| 2026-04-27 13:28 | 35.49784 | -98.41799 | 19577 ft | 199 kts | 268° |
| 2026-04-27 13:29 | 35.49934 | -98.43523 | 19722 ft | 207 kts | 268° |
| 2026-04-27 13:29 | 35.50086 | -98.45336 | 19753 ft | 218 kts | 268° |
| 2026-04-27 13:29 | 35.50243 | -98.47233 | 19754 ft | 227 kts | 268° |
| 2026-04-27 13:29 | 35.50406 | -98.49176 | 19751 ft | 234 kts | 268° |
| 2026-04-27 13:30 | 35.50576 | -98.51189 | 19749 ft | 240 kts | 269° |
| 2026-04-27 13:30 | 35.50755 | -98.53259 | 19752 ft | 247 kts | 269° |
| 2026-04-27 13:30 | 35.50943 | -98.55389 | 19750 ft | 254 kts | 269° |
| 2026-04-27 13:30 | 35.51132 | -98.57570 | 19748 ft | 259 kts | 269° |
| 2026-04-27 13:31 | 35.51328 | -98.59788 | 19748 ft | 263 kts | 269° |
| 2026-04-27 13:31 | 35.51528 | -98.62035 | 19746 ft | 265 kts | 269° |
| 2026-04-27 13:31 | 35.51729 | -98.64304 | 19742 ft | 267 kts | 269° |
| 2026-04-27 13:31 | 35.51928 | -98.66547 | 19741 ft | 269 kts | 270° |
| 2026-04-27 13:32 | 35.52134 | -98.68835 | 19740 ft | 269 kts | 270° |
| 2026-04-27 13:32 | 35.52350 | -98.71127 | 19747 ft | 270 kts | 270° |
| 2026-04-27 13:32 | 35.52553 | -98.73414 | 19746 ft | 270 kts | 269° |
| 2026-04-27 13:32 | 35.52738 | -98.75711 | 19746 ft | 270 kts | 269° |
| 2026-04-27 13:33 | 35.52919 | -98.78007 | 19752 ft | 269 kts | 269° |
| 2026-04-27 13:33 | 35.53100 | -98.80293 | 19756 ft | 269 kts | 269° |
| 2026-04-27 13:33 | 35.53282 | -98.82582 | 19761 ft | 269 kts | 269° |
| 2026-04-27 13:33 | 35.53468 | -98.84874 | 19766 ft | 270 kts | 269° |
| 2026-04-27 13:34 | 35.53656 | -98.87134 | 19774 ft | 270 kts | 269° |
| 2026-04-27 13:34 | 35.53849 | -98.89425 | 19776 ft | 270 kts | 269° |
| 2026-04-27 13:34 | 35.54043 | -98.91724 | 19779 ft | 270 kts | 269° |
| 2026-04-27 13:34 | 35.54244 | -98.94018 | 19781 ft | 270 kts | 269° |
| 2026-04-27 13:35 | 35.54441 | -98.96310 | 19780 ft | 270 kts | 269° |
| 2026-04-27 13:35 | 35.54638 | -98.98602 | 19778 ft | 269 kts | 269° |
| 2026-04-27 13:35 | 35.54836 | -99.00876 | 19778 ft | 266 kts | 269° |
| 2026-04-27 13:35 | 35.55034 | -99.03118 | 19778 ft | 263 kts | 269° |
| 2026-04-27 13:36 | 35.55231 | -99.05349 | 19777 ft | 262 kts | 269° |
| 2026-04-27 13:36 | 35.55427 | -99.07564 | 19777 ft | 261 kts | 269° |
| 2026-04-27 13:36 | 35.55625 | -99.09772 | 19778 ft | 260 kts | 269° |
| 2026-04-27 13:36 | 35.55835 | -99.11975 | 19777 ft | 260 kts | 271° |
| 2026-04-27 13:37 | 35.56251 | -99.14175 | 19777 ft | 269 kts | 278° |
| 2026-04-27 13:37 | 35.56910 | -99.16354 | 19783 ft | 275 kts | 283° |
| 2026-04-27 13:37 | 35.57722 | -99.18477 | 19779 ft | 280 kts | 287° |
| 2026-04-27 13:37 | 35.58647 | -99.20592 | 19777 ft | 283 kts | 289° |
| 2026-04-27 13:38 | 35.59641 | -99.22690 | 19781 ft | 285 kts | 290° |
| 2026-04-27 13:38 | 35.60674 | -99.24770 | 19781 ft | 286 kts | 291° |
| 2026-04-27 13:38 | 35.61730 | -99.26850 | 19778 ft | 287 kts | 291° |
| 2026-04-27 13:38 | 35.62797 | -99.28926 | 19779 ft | 287 kts | 292° |
| 2026-04-27 13:39 | 35.63872 | -99.31002 | 19779 ft | 287 kts | 291° |
| 2026-04-27 13:39 | 35.64944 | -99.33070 | 19778 ft | 287 kts | 291° |
| 2026-04-27 13:39 | 35.66016 | -99.35143 | 19777 ft | 287 kts | 291° |
| 2026-04-27 13:39 | 35.67084 | -99.37215 | 19777 ft | 287 kts | 291° |
| 2026-04-27 13:40 | 35.68153 | -99.39292 | 19781 ft | 287 kts | 291° |
| 2026-04-27 13:40 | 35.69223 | -99.41363 | 19787 ft | 287 kts | 291° |
| 2026-04-27 13:40 | 35.70294 | -99.43428 | 19786 ft | 286 kts | 291° |
| 2026-04-27 13:40 | 35.71353 | -99.45502 | 19783 ft | 286 kts | 291° |
| 2026-04-27 13:41 | 35.72409 | -99.47584 | 19785 ft | 286 kts | 291° |
| 2026-04-27 13:41 | 35.73463 | -99.49657 | 19785 ft | 286 kts | 291° |
| 2026-04-27 13:41 | 35.74508 | -99.51706 | 19785 ft | 285 kts | 291° |
| 2026-04-27 13:41 | 35.75570 | -99.53773 | 19787 ft | 284 kts | 291° |
| 2026-04-27 13:42 | 35.76632 | -99.55816 | 19790 ft | 277 kts | 291° |
| 2026-04-27 13:42 | 35.77649 | -99.57754 | 19788 ft | 268 kts | 291° |
| 2026-04-27 13:42 | 35.78649 | -99.59649 | 19788 ft | 261 kts | 291° |
| 2026-04-27 13:42 | 35.79627 | -99.61499 | 19789 ft | 254 kts | 290° |
| 2026-04-27 13:43 | 35.80584 | -99.63307 | 19792 ft | 249 kts | 290° |
| 2026-04-27 13:43 | 35.81208 | -99.64486 | 19792 ft | 246 kts | 290° |
| 2026-04-27 13:43 | 35.82133 | -99.66241 | 19792 ft | 243 kts | 290° |
| 2026-04-27 13:43 | 35.83049 | -99.67980 | 19792 ft | 240 kts | 289° |
| 2026-04-27 13:44 | 35.83952 | -99.69696 | 19792 ft | 237 kts | 289° |
| 2026-04-27 13:44 | 35.84846 | -99.71394 | 19796 ft | 235 kts | 289° |
| 2026-04-27 13:44 | 35.85730 | -99.73076 | 19795 ft | 233 kts | 289° |
| 2026-04-27 13:44 | 35.86606 | -99.74749 | 19794 ft | 231 kts | 289° |
| 2026-04-27 13:45 | 35.87477 | -99.76412 | 19796 ft | 230 kts | 289° |
| 2026-04-27 13:45 | 35.88342 | -99.78063 | 19797 ft | 229 kts | 289° |
| 2026-04-27 13:45 | 35.89204 | -99.79712 | 19797 ft | 228 kts | 289° |
| 2026-04-27 13:45 | 35.90064 | -99.81358 | 19797 ft | 227 kts | 289° |
| 2026-04-27 13:46 | 35.90919 | -99.82995 | 19796 ft | 227 kts | 288° |
| 2026-04-27 13:46 | 35.91760 | -99.84608 | 19796 ft | 226 kts | 288° |
| 2026-04-27 13:46 | 35.92613 | -99.86243 | 19797 ft | 226 kts | 288° |
| 2026-04-27 13:46 | 35.93463 | -99.87871 | 19798 ft | 226 kts | 288° |
| 2026-04-27 13:47 | 35.94311 | -99.89497 | 19797 ft | 225 kts | 288° |
| 2026-04-27 13:47 | 35.95157 | -99.91122 | 19797 ft | 225 kts | 288° |
| 2026-04-27 13:47 | 35.96001 | -99.92744 | 19797 ft | 224 kts | 288° |
| 2026-04-27 13:47 | 35.96845 | -99.94367 | 19798 ft | 224 kts | 288° |
| 2026-04-27 13:48 | 35.97686 | -99.95984 | 19798 ft | 224 kts | 288° |
| 2026-04-27 13:48 | 35.98526 | -99.97599 | 19798 ft | 224 kts | 288° |
| 2026-04-27 13:48 | 35.99366 | -99.99217 | 19799 ft | 224 kts | 288° |
| 2026-04-27 13:48 | 36.00207 | -100.00836 | 19799 ft | 224 kts | 288° |
| 2026-04-27 13:49 | 36.01045 | -100.02451 | 19800 ft | 224 kts | 288° |
| 2026-04-27 13:49 | 36.01885 | -100.04072 | 19800 ft | 224 kts | 288° |
| 2026-04-27 13:49 | 36.02716 | -100.05669 | 19803 ft | 223 kts | 288° |
| 2026-04-27 13:49 | 36.03554 | -100.07282 | 19802 ft | 223 kts | 288° |
| 2026-04-27 13:50 | 36.04392 | -100.08900 | 19802 ft | 223 kts | 288° |
| 2026-04-27 13:50 | 36.05229 | -100.10515 | 19802 ft | 223 kts | 288° |
| 2026-04-27 13:50 | 36.06065 | -100.12133 | 19803 ft | 225 kts | 288° |
| 2026-04-27 13:50 | 36.06910 | -100.13780 | 19804 ft | 227 kts | 288° |
| 2026-04-27 13:51 | 36.07760 | -100.15426 | 19803 ft | 226 kts | 288° |
| 2026-04-27 13:51 | 36.08606 | -100.17062 | 19803 ft | 226 kts | 288° |
| 2026-04-27 13:51 | 36.09452 | -100.18698 | 19803 ft | 225 kts | 288° |
| 2026-04-27 13:51 | 36.10296 | -100.20331 | 19804 ft | 225 kts | 288° |
| 2026-04-27 13:52 | 36.11138 | -100.21962 | 19801 ft | 225 kts | 288° |
| 2026-04-27 13:52 | 36.11980 | -100.23594 | 19800 ft | 225 kts | 288° |
| 2026-04-27 13:52 | 36.12811 | -100.25206 | 19800 ft | 225 kts | 288° |
| 2026-04-27 13:52 | 36.13654 | -100.26840 | 19801 ft | 225 kts | 288° |
| 2026-04-27 13:53 | 36.15336 | -100.30106 | 19802 ft | 225 kts | 288° |
| 2026-04-27 13:53 | 36.16176 | -100.31738 | 19802 ft | 225 kts | 288° |
| 2026-04-27 13:53 | 36.17016 | -100.33369 | 19803 ft | 224 kts | 288° |
| 2026-04-27 13:54 | 36.17855 | -100.35000 | 19804 ft | 224 kts | 288° |
| 2026-04-27 13:54 | 36.18692 | -100.36627 | 19804 ft | 224 kts | 289° |
| 2026-04-27 13:54 | 36.19527 | -100.38253 | 19805 ft | 224 kts | 289° |
| 2026-04-27 13:54 | 36.20363 | -100.39880 | 19808 ft | 224 kts | 289° |
| 2026-04-27 13:55 | 36.21200 | -100.41505 | 19810 ft | 224 kts | 289° |
| 2026-04-27 13:55 | 36.22038 | -100.43139 | 19812 ft | 224 kts | 289° |
| 2026-04-27 13:55 | 36.22867 | -100.44758 | 19813 ft | 225 kts | 289° |
| 2026-04-27 13:55 | 36.23711 | -100.46411 | 19814 ft | 227 kts | 289° |
| 2026-04-27 13:56 | 36.24551 | -100.48060 | 19815 ft | 229 kts | 289° |
| 2026-04-27 13:56 | 36.25406 | -100.49740 | 19817 ft | 230 kts | 289° |
| 2026-04-27 13:56 | 36.26254 | -100.51403 | 19818 ft | 231 kts | 289° |
| 2026-04-27 13:56 | 36.27118 | -100.53093 | 19819 ft | 231 kts | 289° |
| 2026-04-27 13:57 | 36.27985 | -100.54788 | 19820 ft | 232 kts | 289° |
| 2026-04-27 13:57 | 36.28850 | -100.56482 | 19821 ft | 232 kts | 289° |
| 2026-04-27 13:57 | 36.29710 | -100.58166 | 19822 ft | 233 kts | 289° |
| 2026-04-27 13:57 | 36.30568 | -100.59850 | 19823 ft | 233 kts | 289° |
| 2026-04-27 13:58 | 36.31440 | -100.61560 | 19825 ft | 233 kts | 289° |
| 2026-04-27 13:58 | 36.32302 | -100.63251 | 19826 ft | 233 kts | 289° |
| 2026-04-27 13:58 | 36.33173 | -100.64957 | 19827 ft | 233 kts | 289° |
| 2026-04-27 13:58 | 36.34031 | -100.66640 | 19827 ft | 233 kts | 289° |
| 2026-04-27 13:59 | 36.34906 | -100.68362 | 19828 ft | 234 kts | 289° |
| 2026-04-27 13:59 | 36.35763 | -100.70051 | 19828 ft | 234 kts | 290° |
| 2026-04-27 13:59 | 36.36633 | -100.71760 | 19828 ft | 233 kts | 290° |
| 2026-04-27 13:59 | 36.37500 | -100.73463 | 19828 ft | 233 kts | 290° |
| 2026-04-27 14:00 | 36.38357 | -100.75148 | 19829 ft | 232 kts | 290° |
| 2026-04-27 14:00 | 36.39224 | -100.76849 | 19832 ft | 232 kts | 290° |
| 2026-04-27 14:00 | 36.40090 | -100.78544 | 19832 ft | 232 kts | 290° |
| 2026-04-27 14:00 | 36.40945 | -100.80229 | 19830 ft | 233 kts | 290° |
| 2026-04-27 14:01 | 36.41813 | -100.81946 | 19829 ft | 233 kts | 290° |
| 2026-04-27 14:01 | 36.42673 | -100.83643 | 19831 ft | 233 kts | 290° |
| 2026-04-27 14:01 | 36.43539 | -100.85350 | 19831 ft | 233 kts | 290° |
| 2026-04-27 14:01 | 36.44393 | -100.87037 | 19829 ft | 232 kts | 290° |
| 2026-04-27 14:02 | 36.45247 | -100.88724 | 19829 ft | 232 kts | 290° |
| 2026-04-27 14:02 | 36.46113 | -100.90436 | 19829 ft | 232 kts | 290° |
| 2026-04-27 14:02 | 36.46963 | -100.92119 | 19830 ft | 232 kts | 290° |
| 2026-04-27 14:02 | 36.47825 | -100.93826 | 19830 ft | 232 kts | 290° |
| 2026-04-27 14:03 | 36.48676 | -100.95510 | 19830 ft | 231 kts | 290° |
| 2026-04-27 14:03 | 36.49527 | -100.97193 | 19832 ft | 231 kts | 290° |
| 2026-04-27 14:03 | 36.50386 | -100.98892 | 19831 ft | 231 kts | 290° |
| 2026-04-27 14:03 | 36.51231 | -101.00567 | 19830 ft | 231 kts | 290° |
| 2026-04-27 14:04 | 36.52087 | -101.02261 | 19833 ft | 231 kts | 290° |
| 2026-04-27 14:04 | 36.52943 | -101.03958 | 19832 ft | 230 kts | 290° |
| 2026-04-27 14:04 | 36.53783 | -101.05625 | 19831 ft | 230 kts | 290° |
| 2026-04-27 14:04 | 36.54636 | -101.07321 | 19832 ft | 229 kts | 290° |
| 2026-04-27 14:05 | 36.55473 | -101.08983 | 19831 ft | 228 kts | 290° |
| 2026-04-27 14:05 | 36.56315 | -101.10654 | 19831 ft | 227 kts | 290° |
| 2026-04-27 14:05 | 36.57156 | -101.12327 | 19832 ft | 228 kts | 290° |
| 2026-04-27 14:05 | 36.57998 | -101.14005 | 19832 ft | 229 kts | 290° |
| 2026-04-27 14:06 | 36.58844 | -101.15695 | 19832 ft | 230 kts | 290° |
| 2026-04-27 14:06 | 36.59683 | -101.17371 | 19832 ft | 231 kts | 290° |
| 2026-04-27 14:06 | 36.60536 | -101.19075 | 19832 ft | 232 kts | 290° |
| 2026-04-27 14:06 | 36.61381 | -101.20764 | 19832 ft | 232 kts | 290° |
| 2026-04-27 14:07 | 36.62243 | -101.22482 | 19835 ft | 233 kts | 290° |
| 2026-04-27 14:07 | 36.63101 | -101.24197 | 19834 ft | 233 kts | 290° |
| 2026-04-27 14:07 | 36.63959 | -101.25912 | 19837 ft | 233 kts | 290° |
| 2026-04-27 14:07 | 36.64820 | -101.27634 | 19836 ft | 234 kts | 290° |
| 2026-04-27 14:08 | 36.65673 | -101.29342 | 19835 ft | 234 kts | 290° |
| 2026-04-27 14:08 | 36.66536 | -101.31070 | 19834 ft | 235 kts | 290° |
| 2026-04-27 14:08 | 36.67393 | -101.32787 | 19833 ft | 235 kts | 290° |
| 2026-04-27 14:08 | 36.68257 | -101.34515 | 19835 ft | 235 kts | 290° |
| 2026-04-27 14:09 | 36.69122 | -101.36246 | 19834 ft | 235 kts | 290° |
| 2026-04-27 14:09 | 36.69991 | -101.37989 | 19833 ft | 235 kts | 290° |
| 2026-04-27 14:09 | 36.70843 | -101.39698 | 19832 ft | 235 kts | 290° |
| 2026-04-27 14:09 | 36.71707 | -101.41434 | 19831 ft | 235 kts | 290° |
| 2026-04-27 14:10 | 36.72573 | -101.43173 | 19831 ft | 235 kts | 290° |
| 2026-04-27 14:10 | 36.73427 | -101.44886 | 19833 ft | 235 kts | 290° |
| 2026-04-27 14:10 | 36.74292 | -101.46623 | 19832 ft | 235 kts | 290° |
| 2026-04-27 14:10 | 36.75155 | -101.48363 | 19831 ft | 236 kts | 290° |
| 2026-04-27 14:11 | 36.76019 | -101.50103 | 19831 ft | 236 kts | 290° |
| 2026-04-27 14:11 | 36.76886 | -101.51847 | 19832 ft | 236 kts | 290° |
| 2026-04-27 14:11 | 36.77740 | -101.53565 | 19832 ft | 236 kts | 291° |
| 2026-04-27 14:11 | 36.78605 | -101.55306 | 19834 ft | 236 kts | 290° |
| 2026-04-27 14:12 | 36.79467 | -101.57046 | 19835 ft | 236 kts | 290° |
| 2026-04-27 14:12 | 36.80329 | -101.58786 | 19836 ft | 236 kts | 290° |
| 2026-04-27 14:12 | 36.81186 | -101.60515 | 19837 ft | 233 kts | 291° |
| 2026-04-27 14:12 | 36.82038 | -101.62229 | 19839 ft | 230 kts | 290° |
| 2026-04-27 14:13 | 36.82879 | -101.63920 | 19841 ft | 228 kts | 290° |
| 2026-04-27 14:13 | 36.83714 | -101.65600 | 19843 ft | 226 kts | 290° |
| 2026-04-27 14:13 | 36.84543 | -101.67270 | 19846 ft | 226 kts | 290° |
| 2026-04-27 14:13 | 36.85363 | -101.68927 | 19848 ft | 225 kts | 290° |
| 2026-04-27 14:14 | 36.86186 | -101.70593 | 19851 ft | 225 kts | 290° |
| 2026-04-27 14:14 | 36.87012 | -101.72265 | 19853 ft | 226 kts | 290° |
| 2026-04-27 14:14 | 36.87824 | -101.73910 | 19856 ft | 226 kts | 290° |
| 2026-04-27 14:14 | 36.88647 | -101.75579 | 19858 ft | 226 kts | 290° |
| 2026-04-27 14:15 | 36.89471 | -101.77253 | 19859 ft | 226 kts | 290° |
| 2026-04-27 14:15 | 36.90294 | -101.78926 | 19861 ft | 226 kts | 290° |
| 2026-04-27 14:15 | 36.91122 | -101.80607 | 19863 ft | 227 kts | 290° |
| 2026-04-27 14:15 | 36.91947 | -101.82284 | 19865 ft | 227 kts | 290° |
| 2026-04-27 14:16 | 36.92773 | -101.83965 | 19866 ft | 227 kts | 291° |
| 2026-04-27 14:16 | 36.93600 | -101.85648 | 19867 ft | 227 kts | 291° |
| 2026-04-27 14:16 | 36.94429 | -101.87334 | 19868 ft | 228 kts | 291° |
| 2026-04-27 14:16 | 36.95259 | -101.89026 | 19868 ft | 228 kts | 291° |
| 2026-04-27 14:17 | 36.96088 | -101.90715 | 19868 ft | 228 kts | 291° |
| 2026-04-27 14:17 | 36.96907 | -101.92384 | 19869 ft | 228 kts | 291° |
| 2026-04-27 14:17 | 36.97747 | -101.94096 | 19869 ft | 228 kts | 291° |
| 2026-04-27 14:17 | 36.98566 | -101.95767 | 19868 ft | 228 kts | 291° |
| 2026-04-27 14:18 | 36.99397 | -101.97464 | 19868 ft | 228 kts | 291° |
| 2026-04-27 14:18 | 37.00227 | -101.99160 | 19869 ft | 229 kts | 291° |
| 2026-04-27 14:18 | 37.01058 | -102.00864 | 19869 ft | 229 kts | 292° |
| 2026-04-27 14:18 | 37.01885 | -102.02567 | 19868 ft | 229 kts | 292° |
| 2026-04-27 14:19 | 37.02718 | -102.04272 | 19868 ft | 230 kts | 292° |
| 2026-04-27 14:19 | 37.03552 | -102.05976 | 19868 ft | 230 kts | 292° |
| 2026-04-27 14:19 | 37.04386 | -102.07681 | 19867 ft | 230 kts | 292° |
| 2026-04-27 14:19 | 37.05221 | -102.09386 | 19867 ft | 230 kts | 292° |
| 2026-04-27 14:20 | 37.06057 | -102.11096 | 19867 ft | 230 kts | 292° |
| 2026-04-27 14:20 | 37.06892 | -102.12807 | 19866 ft | 231 kts | 292° |
| 2026-04-27 14:20 | 37.07720 | -102.14507 | 19866 ft | 231 kts | 292° |
| 2026-04-27 14:20 | 37.08558 | -102.16227 | 19865 ft | 232 kts | 293° |
| 2026-04-27 14:21 | 37.09396 | -102.17951 | 19865 ft | 232 kts | 293° |
| 2026-04-27 14:21 | 37.10237 | -102.19677 | 19865 ft | 232 kts | 293° |
| 2026-04-27 14:21 | 37.11079 | -102.21405 | 19864 ft | 232 kts | 293° |
| 2026-04-27 14:21 | 37.11921 | -102.23134 | 19863 ft | 232 kts | 293° |
| 2026-04-27 14:22 | 37.12759 | -102.24858 | 19865 ft | 232 kts | 293° |
| 2026-04-27 14:22 | 37.13597 | -102.26586 | 19865 ft | 232 kts | 293° |
| 2026-04-27 14:22 | 37.14438 | -102.28318 | 19864 ft | 232 kts | 293° |
| 2026-04-27 14:22 | 37.15278 | -102.30051 | 19863 ft | 233 kts | 293° |
| 2026-04-27 14:23 | 37.16118 | -102.31783 | 19864 ft | 232 kts | 293° |
| 2026-04-27 14:23 | 37.16959 | -102.33513 | 19864 ft | 232 kts | 293° |
| 2026-04-27 14:23 | 37.17800 | -102.35246 | 19861 ft | 233 kts | 293° |
| 2026-04-27 14:23 | 37.18631 | -102.36960 | 19859 ft | 233 kts | 293° |
| 2026-04-27 14:24 | 37.19474 | -102.38698 | 19861 ft | 233 kts | 294° |
| 2026-04-27 14:24 | 37.20318 | -102.40436 | 19861 ft | 233 kts | 293° |
| 2026-04-27 14:24 | 37.21160 | -102.42176 | 19860 ft | 233 kts | 294° |
| 2026-04-27 14:24 | 37.22008 | -102.43914 | 19860 ft | 234 kts | 294° |
| 2026-04-27 14:25 | 37.22859 | -102.45652 | 19857 ft | 234 kts | 294° |
| 2026-04-27 14:25 | 37.23711 | -102.47394 | 19856 ft | 234 kts | 294° |
| 2026-04-27 14:25 | 37.24552 | -102.49144 | 19856 ft | 234 kts | 293° |
| 2026-04-27 14:25 | 37.25393 | -102.50898 | 19854 ft | 234 kts | 294° |
| 2026-04-27 14:26 | 37.26231 | -102.52653 | 19852 ft | 235 kts | 294° |
| 2026-04-27 14:26 | 37.27074 | -102.54410 | 19854 ft | 235 kts | 294° |
| 2026-04-27 14:26 | 37.27921 | -102.56168 | 19852 ft | 235 kts | 294° |
| 2026-04-27 14:26 | 37.28765 | -102.57922 | 19855 ft | 235 kts | 294° |
| 2026-04-27 14:27 | 37.29601 | -102.59648 | 19858 ft | 234 kts | 294° |
| 2026-04-27 14:27 | 37.30445 | -102.61403 | 19854 ft | 235 kts | 294° |
| 2026-04-27 14:27 | 37.31284 | -102.63163 | 19851 ft | 235 kts | 294° |
| 2026-04-27 14:27 | 37.32126 | -102.64933 | 19848 ft | 236 kts | 294° |
| 2026-04-27 14:28 | 37.32971 | -102.66704 | 19849 ft | 237 kts | 294° |
| 2026-04-27 14:28 | 37.33817 | -102.68478 | 19849 ft | 237 kts | 294° |
| 2026-04-27 14:28 | 37.34665 | -102.70253 | 19850 ft | 237 kts | 294° |
| 2026-04-27 14:28 | 37.35512 | -102.72027 | 19852 ft | 236 kts | 294° |
| 2026-04-27 14:29 | 37.36358 | -102.73808 | 19851 ft | 237 kts | 294° |
| 2026-04-27 14:29 | 37.37207 | -102.75582 | 19852 ft | 237 kts | 294° |
| 2026-04-27 14:29 | 37.38051 | -102.77360 | 19851 ft | 237 kts | 294° |
| 2026-04-27 14:29 | 37.38897 | -102.79143 | 19851 ft | 237 kts | 294° |
| 2026-04-27 14:30 | 37.39747 | -102.80922 | 19852 ft | 237 kts | 294° |
| 2026-04-27 14:30 | 37.40591 | -102.82682 | 19852 ft | 238 kts | 294° |
| 2026-04-27 14:30 | 37.41443 | -102.84459 | 19853 ft | 237 kts | 294° |
| 2026-04-27 14:30 | 37.42297 | -102.86240 | 19854 ft | 237 kts | 294° |
| 2026-04-27 14:31 | 37.43149 | -102.88020 | 19853 ft | 237 kts | 294° |
| 2026-04-27 14:31 | 37.44000 | -102.89802 | 19854 ft | 237 kts | 294° |
| 2026-04-27 14:31 | 37.44848 | -102.91586 | 19854 ft | 237 kts | 294° |
| 2026-04-27 14:31 | 37.45692 | -102.93366 | 19854 ft | 237 kts | 294° |
| 2026-04-27 14:32 | 37.46254 | -102.94552 | 19854 ft | 237 kts | 294° |
| 2026-04-27 14:32 | 37.47374 | -102.96910 | 19860 ft | 236 kts | 294° |
| 2026-04-27 14:32 | 37.48219 | -102.98687 | 19862 ft | 236 kts | 295° |
| 2026-04-27 14:32 | 37.49063 | -103.00465 | 19863 ft | 236 kts | 294° |
| 2026-04-27 14:33 | 37.49908 | -103.02246 | 19861 ft | 238 kts | 295° |
| 2026-04-27 14:33 | 37.50470 | -103.03430 | 19860 ft | 238 kts | 295° |
| 2026-04-27 14:33 | 37.51318 | -103.05222 | 19859 ft | 237 kts | 294° |
| 2026-04-27 14:33 | 37.52162 | -103.07013 | 19861 ft | 237 kts | 295° |
| 2026-04-27 14:34 | 37.53010 | -103.08797 | 19864 ft | 237 kts | 295° |
| 2026-04-27 14:34 | 37.53858 | -103.10583 | 19863 ft | 238 kts | 295° |
| 2026-04-27 14:34 | 37.54707 | -103.12373 | 19863 ft | 238 kts | 295° |
| 2026-04-27 14:34 | 37.55556 | -103.14166 | 19863 ft | 238 kts | 295° |
| 2026-04-27 14:35 | 37.56404 | -103.15959 | 19866 ft | 238 kts | 295° |
| 2026-04-27 14:35 | 37.57250 | -103.17747 | 19869 ft | 237 kts | 295° |
| 2026-04-27 14:35 | 37.58086 | -103.19516 | 19871 ft | 237 kts | 295° |
| 2026-04-27 14:35 | 37.58936 | -103.21319 | 19866 ft | 238 kts | 295° |
| 2026-04-27 14:36 | 37.59781 | -103.23109 | 19866 ft | 239 kts | 295° |
| 2026-04-27 14:36 | 37.60640 | -103.24933 | 19869 ft | 240 kts | 295° |
| 2026-04-27 14:36 | 37.61490 | -103.26741 | 19858 ft | 241 kts | 295° |
| 2026-04-27 14:36 | 37.62344 | -103.28557 | 19869 ft | 242 kts | 296° |
| 2026-04-27 14:37 | 37.63205 | -103.30389 | 19871 ft | 242 kts | 296° |
| 2026-04-27 14:37 | 37.64064 | -103.32207 | 19878 ft | 242 kts | 296° |
| 2026-04-27 14:37 | 37.64932 | -103.34043 | 19877 ft | 243 kts | 296° |
| 2026-04-27 14:37 | 37.65791 | -103.35867 | 19874 ft | 243 kts | 296° |
| 2026-04-27 14:38 | 37.66654 | -103.37711 | 19875 ft | 244 kts | 296° |
| 2026-04-27 14:38 | 37.67518 | -103.39559 | 19874 ft | 245 kts | 296° |
| 2026-04-27 14:38 | 37.68380 | -103.41407 | 19875 ft | 247 kts | 296° |
| 2026-04-27 14:38 | 37.69258 | -103.43285 | 19875 ft | 246 kts | 296° |
| 2026-04-27 14:39 | 37.70120 | -103.45130 | 19875 ft | 246 kts | 296° |
| 2026-04-27 14:39 | 37.70996 | -103.47003 | 19875 ft | 246 kts | 296° |
| 2026-04-27 14:39 | 37.71870 | -103.48873 | 19876 ft | 246 kts | 296° |
| 2026-04-27 14:39 | 37.72732 | -103.50718 | 19876 ft | 246 kts | 297° |
| 2026-04-27 14:40 | 37.73609 | -103.52594 | 19877 ft | 246 kts | 297° |
| 2026-04-27 14:40 | 37.74473 | -103.54442 | 19879 ft | 246 kts | 297° |
| 2026-04-27 14:40 | 37.75349 | -103.56320 | 19879 ft | 246 kts | 297° |
| 2026-04-27 14:40 | 37.76211 | -103.58165 | 19880 ft | 246 kts | 297° |
| 2026-04-27 14:41 | 37.77084 | -103.60035 | 19880 ft | 246 kts | 297° |
| 2026-04-27 14:41 | 37.77947 | -103.61888 | 19880 ft | 247 kts | 297° |
| 2026-04-27 14:41 | 37.78827 | -103.63778 | 19880 ft | 247 kts | 297° |
| 2026-04-27 14:41 | 37.79694 | -103.65642 | 19882 ft | 247 kts | 297° |
| 2026-04-27 14:42 | 37.80565 | -103.67510 | 19880 ft | 248 kts | 297° |
| 2026-04-27 14:42 | 37.81445 | -103.69403 | 19880 ft | 249 kts | 297° |
| 2026-04-27 14:42 | 37.82319 | -103.71284 | 19880 ft | 249 kts | 297° |
| 2026-04-27 14:42 | 37.83198 | -103.73178 | 19881 ft | 249 kts | 297° |
| 2026-04-27 14:43 | 37.84079 | -103.75077 | 19881 ft | 249 kts | 297° |
| 2026-04-27 14:43 | 37.84951 | -103.76949 | 19881 ft | 249 kts | 297° |
| 2026-04-27 14:43 | 37.85839 | -103.78860 | 19881 ft | 249 kts | 297° |
| 2026-04-27 14:43 | 37.86713 | -103.80744 | 19881 ft | 249 kts | 297° |
| 2026-04-27 14:44 | 37.87598 | -103.82646 | 19881 ft | 250 kts | 298° |
| 2026-04-27 14:44 | 37.88473 | -103.84525 | 19881 ft | 250 kts | 297° |
| 2026-04-27 14:44 | 37.89352 | -103.86428 | 19882 ft | 250 kts | 297° |
| 2026-04-27 14:44 | 37.90232 | -103.88338 | 19885 ft | 250 kts | 297° |
| 2026-04-27 14:45 | 37.91098 | -103.90218 | 19883 ft | 250 kts | 297° |
| 2026-04-27 14:45 | 37.91976 | -103.92123 | 19882 ft | 250 kts | 297° |
| 2026-04-27 14:45 | 37.92855 | -103.94034 | 19882 ft | 250 kts | 297° |
| 2026-04-27 14:45 | 37.93732 | -103.95940 | 19886 ft | 250 kts | 297° |
| 2026-04-27 14:46 | 37.94595 | -103.97821 | 19881 ft | 250 kts | 297° |
| 2026-04-27 14:46 | 37.95469 | -103.99727 | 19881 ft | 251 kts | 297° |
| 2026-04-27 14:46 | 37.96361 | -104.01654 | 19884 ft | 253 kts | 298° |
| 2026-04-27 14:46 | 37.97248 | -104.03579 | 19883 ft | 253 kts | 297° |
| 2026-04-27 14:47 | 37.98132 | -104.05501 | 19881 ft | 252 kts | 297° |
| 2026-04-27 14:47 | 37.99016 | -104.07434 | 19879 ft | 253 kts | 297° |
| 2026-04-27 14:47 | 37.99896 | -104.09366 | 19878 ft | 253 kts | 297° |
| 2026-04-27 14:47 | 38.00779 | -104.11299 | 19877 ft | 253 kts | 297° |
| 2026-04-27 14:48 | 38.01663 | -104.13234 | 19879 ft | 254 kts | 297° |
| 2026-04-27 14:48 | 38.03436 | -104.17097 | 19883 ft | 253 kts | 298° |
| 2026-04-27 14:48 | 38.04322 | -104.19019 | 19886 ft | 252 kts | 298° |
| 2026-04-27 14:49 | 38.05209 | -104.20943 | 19882 ft | 252 kts | 298° |
| 2026-04-27 14:49 | 38.06092 | -104.22867 | 19882 ft | 252 kts | 297° |
| 2026-04-27 14:49 | 38.06965 | -104.24774 | 19884 ft | 255 kts | 298° |
| 2026-04-27 14:49 | 38.07864 | -104.26745 | 19884 ft | 260 kts | 298° |
| 2026-04-27 14:50 | 38.08775 | -104.28744 | 19884 ft | 263 kts | 298° |
| 2026-04-27 14:50 | 38.09696 | -104.30771 | 19883 ft | 266 kts | 297° |
| 2026-04-27 14:50 | 38.10625 | -104.32814 | 19884 ft | 268 kts | 297° |
| 2026-04-27 14:50 | 38.11559 | -104.34875 | 19889 ft | 268 kts | 298° |
| 2026-04-27 14:51 | 38.12487 | -104.36911 | 19891 ft | 265 kts | 298° |
| 2026-04-27 14:51 | 38.13410 | -104.38941 | 19889 ft | 266 kts | 297° |
| 2026-04-27 14:51 | 38.14325 | -104.40958 | 19890 ft | 267 kts | 298° |
| 2026-04-27 14:51 | 38.14951 | -104.42339 | 19887 ft | 266 kts | 297° |
| 2026-04-27 14:52 | 38.16163 | -104.45013 | 19885 ft | 262 kts | 297° |
| 2026-04-27 14:52 | 38.17072 | -104.47013 | 19883 ft | 260 kts | 297° |
| 2026-04-27 14:52 | 38.17975 | -104.48998 | 19883 ft | 258 kts | 297° |
| 2026-04-27 14:52 | 38.18871 | -104.50970 | 19881 ft | 257 kts | 298° |
| 2026-04-27 14:53 | 38.19765 | -104.52936 | 19885 ft | 256 kts | 298° |
| 2026-04-27 14:53 | 38.20654 | -104.54889 | 19885 ft | 255 kts | 298° |
| 2026-04-27 14:53 | 38.21542 | -104.56844 | 19882 ft | 255 kts | 298° |
| 2026-04-27 14:53 | 38.22425 | -104.58790 | 19882 ft | 254 kts | 298° |
| 2026-04-27 14:54 | 38.23308 | -104.60739 | 19882 ft | 254 kts | 298° |
| 2026-04-27 14:54 | 38.24189 | -104.62685 | 19885 ft | 253 kts | 297° |
| 2026-04-27 14:54 | 38.25056 | -104.64604 | 19887 ft | 253 kts | 297° |
| 2026-04-27 14:54 | 38.25935 | -104.66548 | 19886 ft | 253 kts | 297° |
| 2026-04-27 14:55 | 38.26814 | -104.68494 | 19888 ft | 254 kts | 297° |
| 2026-04-27 14:55 | 38.27691 | -104.70442 | 19888 ft | 254 kts | 297° |
| 2026-04-27 14:55 | 38.28570 | -104.72392 | 19890 ft | 254 kts | 297° |
| 2026-04-27 14:55 | 38.29447 | -104.74342 | 19893 ft | 254 kts | 297° |
| 2026-04-27 14:56 | 38.30327 | -104.76297 | 19895 ft | 254 kts | 297° |
| 2026-04-27 14:56 | 38.31206 | -104.78250 | 19899 ft | 254 kts | 298° |
| 2026-04-27 14:56 | 38.32089 | -104.80202 | 19901 ft | 254 kts | 298° |
| 2026-04-27 14:56 | 38.32962 | -104.82145 | 19904 ft | 255 kts | 297° |
| 2026-04-27 14:57 | 38.33846 | -104.84111 | 19904 ft | 255 kts | 298° |
| 2026-04-27 14:57 | 38.34729 | -104.86074 | 19907 ft | 255 kts | 297° |
| 2026-04-27 14:57 | 38.35611 | -104.88040 | 19906 ft | 256 kts | 298° |
| 2026-04-27 14:57 | 38.36495 | -104.90011 | 19906 ft | 256 kts | 297° |
| 2026-04-27 14:58 | 38.37376 | -104.91986 | 19909 ft | 256 kts | 298° |
| 2026-04-27 14:58 | 38.38263 | -104.93959 | 19911 ft | 256 kts | 298° |
| 2026-04-27 14:58 | 38.39140 | -104.95910 | 19911 ft | 256 kts | 298° |
| 2026-04-27 14:58 | 38.40013 | -104.97875 | 19911 ft | 256 kts | 297° |
| 2026-04-27 14:59 | 38.40896 | -104.99861 | 19910 ft | 257 kts | 297° |
| 2026-04-27 14:59 | 38.41782 | -105.01844 | 19910 ft | 257 kts | 298° |
| 2026-04-27 14:59 | 38.42687 | -105.03815 | 19907 ft | 258 kts | 298° |
| 2026-04-27 14:59 | 38.43581 | -105.05795 | 19909 ft | 257 kts | 297° |
| 2026-04-27 15:00 | 38.44464 | -105.07783 | 19909 ft | 258 kts | 297° |
| 2026-04-27 15:00 | 38.45335 | -105.09753 | 19910 ft | 258 kts | 297° |
| 2026-04-27 15:00 | 38.46215 | -105.11770 | 19907 ft | 258 kts | 297° |
| 2026-04-27 15:00 | 38.47074 | -105.13759 | 19907 ft | 258 kts | 297° |
| 2026-04-27 15:01 | 38.47960 | -105.15773 | 19913 ft | 258 kts | 297° |
| 2026-04-27 15:01 | 38.48836 | -105.17752 | 19919 ft | 257 kts | 297° |
| 2026-04-27 15:01 | 38.49714 | -105.19728 | 19921 ft | 257 kts | 297° |
| 2026-04-27 15:01 | 38.50604 | -105.21729 | 19919 ft | 258 kts | 297° |
| 2026-04-27 15:02 | 38.51484 | -105.23710 | 19920 ft | 258 kts | 297° |
| 2026-04-27 15:02 | 38.52373 | -105.25711 | 19922 ft | 258 kts | 297° |
| 2026-04-27 15:02 | 38.53249 | -105.27683 | 19927 ft | 257 kts | 297° |
| 2026-04-27 15:02 | 38.54131 | -105.29675 | 19929 ft | 257 kts | 297° |
| 2026-04-27 15:03 | 38.55009 | -105.31671 | 19929 ft | 257 kts | 297° |
| 2026-04-27 15:03 | 38.55889 | -105.33674 | 19929 ft | 258 kts | 297° |
| 2026-04-27 15:03 | 38.56769 | -105.35672 | 19931 ft | 258 kts | 297° |
| 2026-04-27 15:03 | 38.57641 | -105.37651 | 19938 ft | 258 kts | 297° |
| 2026-04-27 15:04 | 38.58515 | -105.39655 | 19938 ft | 258 kts | 297° |
| 2026-04-27 15:04 | 38.59388 | -105.41651 | 19940 ft | 258 kts | 297° |
| 2026-04-27 15:04 | 38.60268 | -105.43660 | 19947 ft | 258 kts | 297° |
| 2026-04-27 15:04 | 38.61148 | -105.45652 | 19951 ft | 259 kts | 297° |
| 2026-04-27 15:05 | 38.62040 | -105.47670 | 19955 ft | 259 kts | 297° |
| 2026-04-27 15:05 | 38.62929 | -105.49683 | 19962 ft | 259 kts | 297° |
| 2026-04-27 15:05 | 38.63807 | -105.51669 | 19971 ft | 258 kts | 297° |
| 2026-04-27 15:05 | 38.64698 | -105.53685 | 19985 ft | 258 kts | 297° |
| 2026-04-27 15:06 | 38.65575 | -105.55671 | 19996 ft | 258 kts | 297° |
| 2026-04-27 15:06 | 38.66458 | -105.57676 | 20000 ft | 258 kts | 297° |
| 2026-04-27 15:06 | 38.67339 | -105.59680 | 19990 ft | 258 kts | 297° |
| 2026-04-27 15:06 | 38.68219 | -105.61687 | 19994 ft | 258 kts | 297° |
| 2026-04-27 15:07 | 38.69094 | -105.63672 | 20006 ft | 259 kts | 297° |
| 2026-04-27 15:07 | 38.69983 | -105.65691 | 20002 ft | 261 kts | 296° |
| 2026-04-27 15:07 | 38.70871 | -105.67724 | 20003 ft | 261 kts | 297° |
| 2026-04-27 15:07 | 38.71758 | -105.69759 | 20006 ft | 261 kts | 296° |
| 2026-04-27 15:08 | 38.72636 | -105.71771 | 20006 ft | 262 kts | 296° |
| 2026-04-27 15:08 | 38.73529 | -105.73824 | 20008 ft | 262 kts | 296° |
| 2026-04-27 15:08 | 38.74420 | -105.75869 | 20013 ft | 263 kts | 296° |
| 2026-04-27 15:08 | 38.75311 | -105.77892 | 20013 ft | 263 kts | 297° |
| 2026-04-27 15:09 | 38.76217 | -105.79940 | 20010 ft | 263 kts | 297° |
| 2026-04-27 15:09 | 38.77123 | -105.81992 | 20007 ft | 264 kts | 297° |
| 2026-04-27 15:09 | 38.78008 | -105.84027 | 20007 ft | 265 kts | 296° |
| 2026-04-27 15:09 | 38.78905 | -105.86104 | 20000 ft | 265 kts | 296° |
| 2026-04-27 15:10 | 38.79774 | -105.88173 | 19996 ft | 265 kts | 295° |
| 2026-04-27 15:10 | 38.80654 | -105.90261 | 20000 ft | 265 kts | 296° |
| 2026-04-27 15:10 | 38.81547 | -105.92339 | 20008 ft | 265 kts | 296° |
| 2026-04-27 15:10 | 38.82436 | -105.94388 | 20012 ft | 265 kts | 296° |
| 2026-04-27 15:11 | 38.83337 | -105.96454 | 20013 ft | 264 kts | 296° |
| 2026-04-27 15:11 | 38.84230 | -105.98503 | 20012 ft | 264 kts | 296° |
| 2026-04-27 15:11 | 38.85130 | -106.00562 | 20015 ft | 264 kts | 296° |
| 2026-04-27 15:11 | 38.86022 | -106.02611 | 20010 ft | 263 kts | 296° |
| 2026-04-27 15:12 | 38.86904 | -106.04649 | 20005 ft | 263 kts | 296° |
| 2026-04-27 15:12 | 38.87800 | -106.06710 | 20005 ft | 263 kts | 296° |
| 2026-04-27 15:12 | 38.88674 | -106.08734 | 20007 ft | 263 kts | 296° |
| 2026-04-27 15:12 | 38.89562 | -106.10798 | 20010 ft | 263 kts | 296° |
| 2026-04-27 15:13 | 38.90442 | -106.12838 | 20006 ft | 263 kts | 296° |
| 2026-04-27 15:13 | 38.91336 | -106.14899 | 20011 ft | 263 kts | 296° |
| 2026-04-27 15:13 | 38.92230 | -106.16956 | 20012 ft | 263 kts | 296° |
| 2026-04-27 15:13 | 38.93106 | -106.18999 | 20018 ft | 263 kts | 295° |
| 2026-04-27 15:14 | 38.93990 | -106.21067 | 20022 ft | 263 kts | 296° |
| 2026-04-27 15:14 | 38.94858 | -106.23116 | 20026 ft | 263 kts | 295° |
| 2026-04-27 15:14 | 38.95906 | -106.25075 | 19877 ft | 269 kts | 307° |
| 2026-04-27 15:14 | 38.97246 | -106.26822 | 19575 ft | 278 kts | 313° |
| 2026-04-27 15:15 | 38.98712 | -106.28461 | 19199 ft | 285 kts | 316° |
| 2026-04-27 15:15 | 39.00276 | -106.30091 | 18790 ft | 288 kts | 317° |
| 2026-04-27 15:15 | 39.01836 | -106.31680 | 18385 ft | 289 kts | 318° |
| 2026-04-27 15:15 | 39.03430 | -106.33282 | 17983 ft | 288 kts | 318° |
| 2026-04-27 15:16 | 39.04954 | -106.34934 | 17581 ft | 285 kts | 314° |
| 2026-04-27 15:16 | 39.06371 | -106.36662 | 17184 ft | 281 kts | 312° |
| 2026-04-27 15:16 | 39.07753 | -106.38435 | 16787 ft | 279 kts | 311° |
| 2026-04-27 15:16 | 39.09104 | -106.40220 | 16386 ft | 276 kts | 311° |
| 2026-04-27 15:17 | 39.10433 | -106.41995 | 15985 ft | 274 kts | 311° |
| 2026-04-27 15:17 | 39.11749 | -106.43781 | 15584 ft | 273 kts | 311° |
| 2026-04-27 15:17 | 39.13030 | -106.45578 | 15220 ft | 276 kts | 311° |
| 2026-04-27 15:17 | 39.14325 | -106.47411 | 15097 ft | 275 kts | 310° |
| 2026-04-27 15:18 | 39.15596 | -106.49206 | 15049 ft | 270 kts | 310° |
| 2026-04-27 15:18 | 39.16848 | -106.50997 | 15040 ft | 266 kts | 310° |
| 2026-04-27 15:18 | 39.18067 | -106.52758 | 15039 ft | 263 kts | 310° |
| 2026-04-27 15:18 | 39.19294 | -106.54512 | 15040 ft | 260 kts | 311° |
| 2026-04-27 15:19 | 39.20099 | -106.55651 | 15041 ft | 258 kts | 310° |
| 2026-04-27 15:19 | 39.21695 | -106.57893 | 15035 ft | 254 kts | 311° |
| 2026-04-27 15:19 | 39.22486 | -106.59013 | 15038 ft | 254 kts | 310° |
| 2026-04-27 15:19 | 39.23691 | -106.60687 | 15035 ft | 254 kts | 310° |
| 2026-04-27 15:20 | 39.24884 | -106.62391 | 15018 ft | 256 kts | 311° |
| 2026-04-27 15:20 | 39.26065 | -106.64109 | 15004 ft | 259 kts | 313° |
| 2026-04-27 15:20 | 39.27359 | -106.65744 | 15001 ft | 261 kts | 317° |
| 2026-04-27 15:20 | 39.28722 | -106.67291 | 15000 ft | 262 kts | 319° |
| 2026-04-27 15:21 | 39.30114 | -106.68804 | 14999 ft | 263 kts | 320° |
| 2026-04-27 15:21 | 39.31366 | -106.70140 | 14999 ft | 263 kts | 320° |
| 2026-04-27 15:21 | 39.32407 | -106.71244 | 14999 ft | 264 kts | 321° |
| 2026-04-27 15:21 | 39.33842 | -106.72759 | 14999 ft | 265 kts | 321° |
| 2026-04-27 15:22 | 39.35259 | -106.74252 | 15000 ft | 267 kts | 321° |
| 2026-04-27 15:22 | 39.36695 | -106.75764 | 14999 ft | 265 kts | 321° |
| 2026-04-27 15:22 | 39.38113 | -106.77257 | 14998 ft | 264 kts | 321° |
| 2026-04-27 15:22 | 39.39545 | -106.78763 | 14998 ft | 262 kts | 321° |
| 2026-04-27 15:23 | 39.40946 | -106.80237 | 14998 ft | 260 kts | 321° |
| 2026-04-27 15:23 | 39.42355 | -106.81719 | 14998 ft | 259 kts | 321° |
| 2026-04-27 15:23 | 39.43740 | -106.83175 | 14998 ft | 258 kts | 321° |
| 2026-04-27 15:23 | 39.45144 | -106.84652 | 14947 ft | 259 kts | 321° |
| 2026-04-27 15:24 | 39.46436 | -106.86236 | 14759 ft | 249 kts | 309° |
| 2026-04-27 15:24 | 39.47144 | -106.88119 | 14541 ft | 224 kts | 285° |
| 2026-04-27 15:24 | 39.47164 | -106.90104 | 14293 ft | 219 kts | 259° |
| 2026-04-27 15:24 | 39.46547 | -106.91873 | 14055 ft | 217 kts | 237° |
| 2026-04-27 15:25 | 39.45615 | -106.93386 | 13818 ft | 218 kts | 229° |
| 2026-04-27 15:25 | 39.44571 | -106.94826 | 13570 ft | 219 kts | 226° |
| 2026-04-27 15:25 | 39.43344 | -106.96000 | 13301 ft | 219 kts | 206° |
| 2026-04-27 15:25 | 39.41894 | -106.96438 | 13059 ft | 218 kts | 184° |
| 2026-04-27 15:26 | 39.40402 | -106.96113 | 12803 ft | 217 kts | 160° |
| 2026-04-27 15:26 | 39.39150 | -106.95078 | 12637 ft | 214 kts | 142° |
| 2026-04-27 15:26 | 39.37949 | -106.93956 | 12532 ft | 211 kts | 147° |
| 2026-04-27 15:26 | 39.36659 | -106.93073 | 12499 ft | 206 kts | 156° |
| 2026-04-27 15:27 | 39.35381 | -106.92511 | 12547 ft | 181 kts | 163° |
| 2026-04-27 15:27 | 39.34209 | -106.92099 | 12365 ft | 171 kts | 165° |
| 2026-04-27 15:27 | 39.33043 | -106.91677 | 11877 ft | 174 kts | 162° |
| 2026-04-27 15:27 | 39.31890 | -106.91241 | 11380 ft | 175 kts | 161° |
| 2026-04-27 15:28 | 39.30715 | -106.90808 | 10865 ft | 174 kts | 162° |
| 2026-04-27 15:28 | 39.29563 | -106.90310 | 10357 ft | 174 kts | 159° |
| 2026-04-27 15:28 | 39.28444 | -106.89789 | 9863 ft | 173 kts | 160° |
| 2026-04-27 15:28 | 39.27317 | -106.89264 | 9406 ft | 170 kts | 159° |
| 2026-04-27 15:29 | 39.26186 | -106.88749 | 8876 ft | 172 kts | 159° |
| 2026-04-27 15:29 | 39.25095 | -106.88214 | 8469 ft | 166 kts | 158° |
| 2026-04-27 15:29 | 39.24038 | -106.87707 | 8056 ft | 159 kts | 159° |
| 2026-04-27 15:29 | 39.23035 | -106.87227 | 7840 ft | 143 kts | 158° |
| 2026-04-27 15:30 | 39.22251 | -106.86851 | 7828 ft | 94 kts | 159° |
| 2026-04-27 15:30 | 39.21867 | -106.86669 | 7828 ft | 16 kts | 160° |
| 2026-04-27 15:30 | 39.21755 | -106.86617 | 7828 ft | 20 kts | 159° |
| 2026-04-27 15:30 | 39.21630 | -106.86556 | 7828 ft | 22 kts | 159° |
| 2026-04-27 15:31 | 39.21519 | -106.86504 | 7828 ft | 16 kts | 158° |
| 2026-04-27 15:31 | 39.21488 | -106.86452 | 7828 ft | 7 kts | 64° |
| 2026-04-27 15:31 | 39.21535 | -106.86441 | 7828 ft | 18 kts | 338° |
| 2026-04-27 15:31 | 39.21657 | -106.86499 | 7828 ft | 23 kts | 340° |
| 2026-04-27 15:32 | 39.21792 | -106.86562 | 7828 ft | 23 kts | 340° |
| 2026-04-27 15:32 | 39.21904 | -106.86591 | 7828 ft | 15 kts | 26° |
| 2026-04-27 15:32 | 39.21959 | -106.86533 | 7828 ft | 8 kts | 69° |
| 2026-04-27 15:32 | 39.21966 | -106.86509 | 7828 ft | 0 kts | 70° |